Time;durP1;ratioP1;P1;durP2;ratioP2;P2;SDS_P1;SDS_P2;PMS_P1;PMS_P2;Temp;Humidity;BMP_temperature;BMP_pressure;BME280_temperature;BME280_humidity;BME280_pressure;Samples;Min_cycle;Max_cycle;Signal;HPM_P1;HPM_P2
2023/03/03 00:00:51;;;;;;;170.90;38.47;;;2.20;99.90;;;;;;6248041;22;20399;-80
2023/03/03 00:03:20;;;;;;;117.72;35.67;;;2.20;99.90;;;;;;6222219;22;20067;-80
2023/03/03 00:05:45;;;;;;;76.97;32.13;;;2.30;99.90;;;;;;6222881;22;20149;-80
2023/03/03 00:08:11;;;;;;;91.90;33.80;;;2.20;99.90;;;;;;6222981;22;20103;-80
2023/03/03 00:10:38;;;;;;;105.60;33.47;;;2.20;99.90;;;;;;6248133;22;20026;-80
2023/03/03 00:13:12;;;;;;;98.28;32.25;;;2.20;99.90;;;;;;6275411;22;20016;-80
2023/03/03 00:15:37;;;;;;;89.97;32.40;;;2.20;99.90;;;;;;6275766;22;20004;-80
2023/03/03 00:18:34;;;;;;;106.97;35.55;;;2.20;99.90;;;;;;6247493;22;20092;-80
2023/03/03 00:21:02;;;;;;;93.10;35.78;;;2.20;99.90;;;;;;6258795;22;20524;-79
2023/03/03 00:23:35;;;;;;;95.82;35.83;;;2.20;99.90;;;;;;6248204;22;20015;-80
2023/03/03 00:26:12;;;;;;;143.13;40.22;;;2.30;99.90;;;;;;6248509;22;20021;-80
2023/03/03 00:28:46;;;;;;;188.48;37.08;;;2.20;99.90;;;;;;6247842;22;20015;-79
2023/03/03 00:31:27;;;;;;;133.52;34.78;;;2.30;99.90;;;;;;6247840;22;20419;-79
2023/03/03 00:33:55;;;;;;;222.48;41.45;;;2.30;99.90;;;;;;6247391;22;20015;-79
2023/03/03 00:36:31;;;;;;;201.60;37.08;;;2.30;99.90;;;;;;6248642;22;20015;-80
2023/03/03 00:39:16;;;;;;;230.63;46.28;;;2.30;99.90;;;;;;6248084;22;20008;-80
2023/03/03 00:41:41;;;;;;;293.55;46.78;;;2.30;99.90;;;;;;6247805;22;20028;-79
2023/03/03 00:44:38;;;;;;;285.27;41.88;;;2.30;99.90;;;;;;6247803;22;20082;-80
2023/03/03 00:47:27;;;;;;;240.60;37.83;;;2.20;99.90;;;;;;6274737;22;20019;-79
2023/03/03 00:50:14;;;;;;;335.35;41.85;;;2.30;99.90;;;;;;6275344;22;20008;-79
2023/03/03 00:52:49;;;;;;;361.83;50.53;;;2.30;99.90;;;;;;6246352;22;20011;-80
2023/03/03 00:55:15;;;;;;;102.93;34.55;;;2.30;99.90;;;;;;6247701;22;20020;-79
2023/03/03 00:57:40;;;;;;;201.73;38.30;;;2.30;99.90;;;;;;6247578;22;20038;-80
2023/03/03 01:00:07;;;;;;;450.77;62.58;;;2.30;99.90;;;;;;6274792;22;20065;-79
2023/03/03 01:02:32;;;;;;;180.23;39.88;;;2.30;99.90;;;;;;6274224;22;20095;-80
2023/03/03 01:04:58;;;;;;;309.75;46.15;;;2.30;99.90;;;;;;6275123;22;20050;-80
2023/03/03 01:07:24;;;;;;;203.18;40.70;;;2.30;99.90;;;;;;6247654;22;20045;-80
2023/03/03 01:09:50;;;;;;;208.45;42.40;;;2.30;99.90;;;;;;6274945;22;20016;-80
2023/03/03 01:12:15;;;;;;;153.45;38.08;;;2.40;99.90;;;;;;6247273;22;20038;-80
2023/03/03 01:14:41;;;;;;;147.68;39.00;;;2.30;99.90;;;;;;6247571;22;20067;-79
2023/03/03 01:17:08;;;;;;;207.70;41.72;;;2.30;99.90;;;;;;6247257;22;20082;-80
2023/03/03 01:19:33;;;;;;;516.80;62.78;;;2.40;99.90;;;;;;6247854;22;20122;-80
2023/03/03 01:22:00;;;;;;;159.35;40.45;;;2.30;99.90;;;;;;6274919;22;20339;-80
2023/03/03 01:24:25;;;;;;;232.20;40.25;;;2.30;99.90;;;;;;6248000;22;20022;-80
2023/03/03 01:26:51;;;;;;;191.32;40.70;;;2.30;99.90;;;;;;6275132;22;20012;-80
2023/03/03 01:29:16;;;;;;;207.15;44.67;;;2.30;99.90;;;;;;6275086;22;20015;-80
2023/03/03 01:31:42;;;;;;;142.73;36.20;;;2.40;99.90;;;;;;6246852;22;20083;-79
2023/03/03 01:34:08;;;;;;;376.25;52.95;;;2.40;99.90;;;;;;6275051;22;20328;-81
2023/03/03 01:36:33;;;;;;;148.50;37.00;;;2.40;99.90;;;;;;6247768;22;20446;-81
2023/03/03 01:39:00;;;;;;;113.28;35.22;;;2.40;99.90;;;;;;6274875;22;20022;-79
2023/03/03 01:41:28;;;;;;;335.00;48.42;;;2.40;99.90;;;;;;6274912;22;20011;-79
2023/03/03 01:43:54;;;;;;;168.23;39.33;;;2.50;99.90;;;;;;6274613;22;20444;-79
2023/03/03 01:46:41;;;;;;;218.57;37.45;;;2.40;99.90;;;;;;6273917;22;20015;-79
2023/03/03 01:49:14;;;;;;;238.70;32.90;;;2.40;99.90;;;;;;6247738;22;20018;-79
2023/03/03 01:51:49;;;;;;;208.85;36.92;;;2.40;99.90;;;;;;6274695;22;20014;-79
2023/03/03 01:54:27;;;;;;;122.13;27.75;;;2.40;99.90;;;;;;6247276;22;20058;-79
2023/03/03 01:56:57;;;;;;;112.60;27.77;;;2.40;99.90;;;;;;6247215;22;20458;-80
2023/03/03 01:59:30;;;;;;;133.65;27.10;;;2.40;99.90;;;;;;6273981;22;20004;-79
2023/03/03 02:01:56;;;;;;;202.73;27.50;;;2.50;99.90;;;;;;6247572;22;20087;-79
2023/03/03 02:04:21;;;;;;;196.23;26.65;;;2.50;99.90;;;;;;6246628;22;20278;-79
2023/03/03 02:06:54;;;;;;;336.40;32.42;;;2.50;99.90;;;;;;6247040;22;20008;-80
2023/03/03 02:09:45;;;;;;;235.50;30.23;;;2.40;99.90;;;;;;6247169;22;20390;-79
2023/03/03 02:12:14;;;;;;;137.57;24.98;;;2.40;99.90;;;;;;6221459;22;20385;-80
2023/03/03 02:14:40;;;;;;;120.50;23.45;;;2.40;99.90;;;;;;6246846;22;20008;-80
2023/03/03 02:17:05;;;;;;;201.35;26.85;;;2.40;99.90;;;;;;6247807;22;20003;-80
2023/03/03 02:19:58;;;;;;;206.65;25.30;;;2.40;99.90;;;;;;6246896;22;20038;-80
2023/03/03 02:22:40;;;;;;;171.82;25.40;;;2.40;99.90;;;;;;6191551;22;20011;-79
2023/03/03 02:25:10;;;;;;;159.07;25.85;;;2.40;99.90;;;;;;6246833;22;20395;-80
2023/03/03 02:27:36;;;;;;;185.27;24.95;;;2.40;99.90;;;;;;6247021;22;20023;-80
2023/03/03 02:30:18;;;;;;;233.90;26.60;;;2.30;99.90;;;;;;6245795;22;20502;-79
2023/03/03 02:32:43;;;;;;;200.05;27.52;;;2.30;99.90;;;;;;6273912;22;20011;-80
2023/03/03 02:35:37;;;;;;;323.85;32.30;;;2.30;99.90;;;;;;6221143;22;20342;-80
2023/03/03 02:38:29;;;;;;;326.25;33.10;;;2.30;99.90;;;;;;6221531;22;20112;-80
2023/03/03 02:41:15;;;;;;;187.52;27.38;;;2.20;99.90;;;;;;6221211;22;20029;-80
2023/03/03 02:43:57;;;;;;;375.02;36.13;;;2.30;99.90;;;;;;6220574;22;20103;-80
2023/03/03 02:46:23;;;;;;;310.05;35.47;;;2.20;99.90;;;;;;6221455;22;20065;-79
2023/03/03 02:48:49;;;;;;;194.60;28.77;;;2.20;99.90;;;;;;6246592;22;20042;-80
2023/03/03 02:51:15;;;;;;;438.25;46.97;;;2.50;99.90;;;;;;6273921;22;20016;-79
2023/03/03 02:53:40;;;;;;;364.67;38.35;;;2.20;99.90;;;;;;6221159;22;20087;-79
2023/03/03 02:56:08;;;;;;;300.77;34.15;;;2.30;99.90;;;;;;6246607;22;20008;-79
2023/03/03 02:58:37;;;;;;;458.55;43.47;;;2.20;99.90;;;;;;6220857;22;20004;-79
2023/03/03 03:01:03;;;;;;;361.70;35.67;;;2.20;99.90;;;;;;6221513;22;20039;-80
2023/03/03 03:03:29;;;;;;;215.27;32.38;;;2.20;99.90;;;;;;6273992;22;20098;-80
2023/03/03 03:05:55;;;;;;;356.17;40.22;;;2.20;99.90;;;;;;6246947;22;20474;-80
2023/03/03 03:08:21;;;;;;;327.75;38.25;;;2.20;99.90;;;;;;6246683;22;20022;-80
2023/03/03 03:10:47;;;;;;;189.65;27.10;;;2.20;99.90;;;;;;6221216;22;20394;-80
2023/03/03 03:13:12;;;;;;;472.17;41.95;;;2.20;99.90;;;;;;6246123;22;20326;-80
2023/03/03 03:15:38;;;;;;;187.25;26.77;;;2.20;99.90;;;;;;6246601;22;20178;-80
2023/03/03 03:18:04;;;;;;;136.60;23.85;;;2.10;99.90;;;;;;6246425;22;20008;-80
2023/03/03 03:20:29;;;;;;;236.15;25.80;;;2.10;99.90;;;;;;6246637;22;20007;-79
2023/03/03 03:22:55;;;;;;;319.02;28.13;;;2.10;99.90;;;;;;6246921;22;20018;-80
2023/03/03 03:25:20;;;;;;;208.52;26.25;;;2.10;99.90;;;;;;6221170;22;20073;-80
2023/03/03 03:27:46;;;;;;;195.10;23.70;;;2.10;99.90;;;;;;6245817;22;20011;-80
2023/03/03 03:30:12;;;;;;;361.40;34.58;;;2.10;99.90;;;;;;6232602;23;20036;-80
2023/03/03 03:32:38;;;;;;;351.05;29.88;;;2.10;99.90;;;;;;6212640;23;20013;-80
2023/03/03 03:35:04;;;;;;;297.23;28.77;;;2.00;99.90;;;;;;6212746;23;20008;-79
2023/03/03 03:37:30;;;;;;;251.85;27.55;;;2.00;99.90;;;;;;6186099;23;20060;-79
2023/03/03 03:39:55;;;;;;;270.98;28.70;;;2.00;99.90;;;;;;6185896;23;20009;-80
2023/03/03 03:42:21;;;;;;;360.63;27.75;;;2.00;99.90;;;;;;6212340;23;20451;-79
2023/03/03 03:44:47;;;;;;;296.65;23.27;;;1.90;99.90;;;;;;6185917;23;20012;-80
2023/03/03 03:47:12;;;;;;;368.85;25.50;;;1.90;99.90;;;;;;6211036;23;20021;-79
2023/03/03 03:49:38;;;;;;;381.58;26.98;;;1.90;99.90;;;;;;6186239;23;20024;-79
2023/03/03 03:52:04;;;;;;;184.27;20.42;;;1.80;99.90;;;;;;6213220;23;20076;-80
2023/03/03 03:54:29;;;;;;;241.25;23.00;;;1.80;99.90;;;;;;6211304;23;20447;-80
2023/03/03 03:56:55;;;;;;;318.30;25.70;;;1.80;99.90;;;;;;6185245;23;20016;-80
2023/03/03 03:59:20;;;;;;;230.52;24.60;;;1.80;99.90;;;;;;6213078;23;20047;-80
2023/03/03 04:01:47;;;;;;;401.40;29.95;;;1.80;99.90;;;;;;6185699;23;20013;-79
2023/03/03 04:04:12;;;;;;;263.30;28.02;;;1.70;99.90;;;;;;6185619;23;20016;-79
2023/03/03 04:06:38;;;;;;;204.90;20.38;;;1.70;99.90;;;;;;6185878;23;20044;-80
2023/03/03 04:09:04;;;;;;;104.22;16.80;;;1.70;99.90;;;;;;6210654;23;20051;-80
2023/03/03 04:11:29;;;;;;;205.45;19.70;;;1.70;99.90;;;;;;6210474;23;20013;-80
2023/03/03 04:13:55;;;;;;;223.38;20.13;;;1.70;99.90;;;;;;6185743;23;20321;-80
2023/03/03 04:16:21;;;;;;;186.68;20.77;;;1.80;99.90;;;;;;6210690;23;20013;-80
2023/03/03 04:18:46;;;;;;;197.70;22.48;;;1.70;99.90;;;;;;6210598;23;20005;-79
2023/03/03 04:21:14;;;;;;;179.55;24.23;;;1.70;99.90;;;;;;6210760;23;20013;-80
2023/03/03 04:23:40;;;;;;;185.10;21.02;;;1.60;99.90;;;;;;6212068;23;20059;-79
2023/03/03 04:26:06;;;;;;;150.65;20.05;;;1.70;99.90;;;;;;6212857;23;20017;-80
2023/03/03 04:28:32;;;;;;;226.50;28.38;;;1.60;99.90;;;;;;6212764;23;20012;-80
2023/03/03 04:30:58;;;;;;;331.65;29.27;;;1.60;99.90;;;;;;6187288;23;20344;-80
2023/03/03 04:33:23;;;;;;;205.02;22.30;;;1.60;99.90;;;;;;6212198;23;20013;-80
2023/03/03 04:35:50;;;;;;;333.90;30.38;;;1.60;99.90;;;;;;6214309;23;20094;-79
2023/03/03 04:38:15;;;;;;;189.50;19.70;;;1.60;99.90;;;;;;6211994;23;20055;-79
2023/03/03 04:40:41;;;;;;;217.68;21.85;;;1.60;99.90;;;;;;6187285;23;20012;-80
2023/03/03 04:43:09;;;;;;;178.98;20.00;;;1.70;99.90;;;;;;6213885;23;20013;-80
2023/03/03 04:45:34;;;;;;;174.65;19.63;;;1.50;99.90;;;;;;6212198;23;20032;-80
2023/03/03 04:48:00;;;;;;;155.55;18.30;;;1.40;99.90;;;;;;6187210;23;20010;-80
2023/03/03 04:50:26;;;;;;;322.38;23.52;;;1.40;99.90;;;;;;6212601;23;20083;-80
2023/03/03 04:52:52;;;;;;;225.25;21.15;;;1.40;99.90;;;;;;6213809;23;20013;-80
2023/03/03 04:55:17;;;;;;;188.88;20.42;;;1.30;99.90;;;;;;6187273;23;20395;-80
2023/03/03 04:57:43;;;;;;;176.93;16.15;;;1.30;99.90;;;;;;6187271;23;20009;-80
2023/03/03 05:00:12;;;;;;;238.80;19.98;;;1.20;99.90;;;;;;6212203;23;20017;-80
2023/03/03 05:02:38;;;;;;;221.43;18.38;;;1.20;99.90;;;;;;6214368;23;20052;-80
2023/03/03 05:05:05;;;;;;;219.68;18.75;;;1.10;99.90;;;;;;6212828;23;20009;-80
2023/03/03 05:07:31;;;;;;;367.75;24.38;;;1.10;99.90;;;;;;6211914;23;20013;-80
2023/03/03 05:09:56;;;;;;;331.48;22.48;;;1.00;99.90;;;;;;6187246;23;20021;-80
2023/03/03 05:12:22;;;;;;;129.02;12.38;;;0.90;99.90;;;;;;6187181;23;20023;-80
2023/03/03 05:14:48;;;;;;;354.48;26.30;;;0.90;99.90;;;;;;6212170;23;20424;-80
2023/03/03 05:17:13;;;;;;;178.43;15.20;;;1.10;99.90;;;;;;6187044;23;20019;-79
2023/03/03 05:19:39;;;;;;;127.35;13.73;;;0.70;99.90;;;;;;6213741;23;20008;-80
2023/03/03 05:22:05;;;;;;;345.98;28.13;;;0.60;99.90;;;;;;6211468;23;20230;-80
2023/03/03 05:24:31;;;;;;;214.80;17.65;;;0.60;99.90;;;;;;6212253;23;20012;-81
2023/03/03 05:26:56;;;;;;;120.20;14.70;;;0.60;99.90;;;;;;6211740;23;20082;-80
2023/03/03 05:29:22;;;;;;;105.72;12.40;;;0.50;99.90;;;;;;6213845;23;20091;-80
2023/03/03 05:31:48;;;;;;;135.05;13.95;;;0.50;99.90;;;;;;6211444;23;21971;-79
2023/03/03 05:34:14;;;;;;;146.82;16.42;;;0.40;99.90;;;;;;6210753;23;20009;-80
2023/03/03 05:36:40;;;;;;;230.60;17.80;;;0.40;99.90;;;;;;6186250;23;20079;-79
2023/03/03 05:39:05;;;;;;;102.05;12.85;;;0.40;99.90;;;;;;6213651;23;20017;-80
2023/03/03 05:41:35;;;;;;;162.88;16.30;;;0.40;99.90;;;;;;6211703;23;20005;-80
2023/03/03 05:44:01;;;;;;;155.95;17.05;;;0.40;99.90;;;;;;6213988;23;20305;-79
2023/03/03 05:46:27;;;;;;;90.50;12.82;;;0.40;99.90;;;;;;6186972;23;20020;-80
2023/03/03 05:48:52;;;;;;;142.88;15.13;;;0.40;99.90;;;;;;6212337;23;20005;-79
2023/03/03 05:51:18;;;;;;;256.00;19.48;;;0.40;99.90;;;;;;6212636;23;20012;-79
2023/03/03 05:53:43;;;;;;;135.65;13.32;;;0.40;99.90;;;;;;6211561;23;20008;-79
2023/03/03 05:56:09;;;;;;;110.88;12.43;;;0.30;99.90;;;;;;6186830;23;20024;-79
2023/03/03 05:58:35;;;;;;;166.75;16.13;;;0.30;99.90;;;;;;6186507;23;20133;-79
2023/03/03 06:01:00;;;;;;;130.98;12.82;;;0.30;99.90;;;;;;6213517;23;20067;-78
2023/03/03 06:03:26;;;;;;;124.22;12.70;;;0.30;99.90;;;;;;6211397;23;20487;-79
2023/03/03 06:05:52;;;;;;;118.43;14.60;;;0.20;99.90;;;;;;6185886;23;20482;-79
2023/03/03 06:08:17;;;;;;;104.00;11.82;;;0.30;99.90;;;;;;6211559;23;20016;-79
2023/03/03 06:10:43;;;;;;;110.20;13.10;;;0.20;99.90;;;;;;6211503;23;20068;-79
2023/03/03 06:13:09;;;;;;;51.40;11.20;;;0.20;99.90;;;;;;6213209;23;20104;-79
2023/03/03 06:15:34;;;;;;;102.47;13.18;;;0.10;99.90;;;;;;6211188;23;20016;-79
2023/03/03 06:18:00;;;;;;;57.33;11.85;;;0.10;99.90;;;;;;6211745;23;20068;-80
2023/03/03 06:20:26;;;;;;;49.63;11.23;;;0.10;99.90;;;;;;6209212;23;20440;-80
2023/03/03 06:22:51;;;;;;;101.93;13.48;;;0.10;99.90;;;;;;6211343;23;20096;-80
2023/03/03 06:25:17;;;;;;;59.92;11.60;;;0.10;99.90;;;;;;6210929;23;20016;-80
2023/03/03 06:27:43;;;;;;;68.95;13.00;;;0.20;99.90;;;;;;6186463;23;20086;-80
2023/03/03 06:30:09;;;;;;;161.07;18.92;;;0.10;99.90;;;;;;6185717;23;20016;-79
2023/03/03 06:32:35;;;;;;;154.48;16.42;;;0.10;99.90;;;;;;6211064;23;20023;-80
2023/03/03 06:35:01;;;;;;;63.35;14.23;;;0.30;99.90;;;;;;6210633;23;20009;-80
2023/03/03 06:37:26;;;;;;;31.17;11.40;;;0.00;99.90;;;;;;6210815;23;20396;-80
2023/03/03 06:39:52;;;;;;;63.97;13.55;;;0.00;99.90;;;;;;6210937;23;20055;-80
2023/03/03 06:42:18;;;;;;;59.92;16.05;;;0.00;99.90;;;;;;6211397;23;20017;-80
2023/03/03 06:44:44;;;;;;;61.95;13.77;;;-0.10;99.90;;;;;;6213004;23;20013;-80
2023/03/03 06:47:09;;;;;;;37.75;11.25;;;-0.10;99.90;;;;;;6212892;23;20016;-80
2023/03/03 06:49:35;;;;;;;44.80;13.60;;;-0.10;99.90;;;;;;6209989;23;20019;-80
2023/03/03 06:52:10;;;;;;;22.33;11.85;;;-0.10;99.90;;;;;;6211032;23;20013;-79
2023/03/03 06:54:35;;;;;;;25.02;12.23;;;0.00;99.90;;;;;;6211083;23;20005;-80
2023/03/03 06:57:15;;;;;;;59.78;13.75;;;0.00;99.90;;;;;;6185814;23;20015;-80
2023/03/03 06:59:40;;;;;;;34.33;13.43;;;0.10;99.90;;;;;;6211241;23;20008;-80
2023/03/03 07:02:14;;;;;;;30.67;14.32;;;0.10;99.90;;;;;;6210732;23;20013;-80
2023/03/03 07:04:40;;;;;;;33.05;15.27;;;0.20;99.90;;;;;;6212422;23;20012;-80
2023/03/03 07:07:17;;;;;;;35.30;14.52;;;0.20;99.90;;;;;;6211203;23;20443;-80
2023/03/03 07:09:44;;;;;;;27.27;13.95;;;0.30;99.90;;;;;;6210830;23;20009;-80
2023/03/03 07:12:14;;;;;;;45.28;15.30;;;0.80;99.90;;;;;;6185731;23;20013;-81
2023/03/03 07:14:45;;;;;;;45.92;16.15;;;0.40;99.90;;;;;;6210794;23;20005;-80
2023/03/03 07:17:16;;;;;;;19.10;12.75;;;0.50;99.90;;;;;;6203329;23;20004;-80
2023/03/03 07:19:43;;;;;;;20.60;13.52;;;0.60;99.90;;;;;;6208559;23;20292;-80
2023/03/03 07:22:14;;;;;;;35.50;14.68;;;0.70;99.90;;;;;;6209146;23;20039;-80
2023/03/03 07:24:42;;;;;;;28.98;12.15;;;0.70;99.90;;;;;;6210187;23;20044;-79
2023/03/03 07:27:13;;;;;;;28.83;12.82;;;0.90;99.90;;;;;;6208965;23;20012;-80
2023/03/03 07:29:40;;;;;;;23.20;11.85;;;1.20;99.90;;;;;;6211947;22;20470;-79
2023/03/03 07:32:21;;;;;;;14.15;10.70;;;0.70;99.90;;;;;;6240909;22;20091;-82
2023/03/03 07:34:49;;;;;;;19.33;10.70;;;0.70;99.90;;;;;;6217508;22;20039;-83
2023/03/03 07:37:33;;;;;;;16.38;10.02;;;0.60;99.90;;;;;;6271152;22;20288;-80
2023/03/03 07:39:59;;;;;;;;;;;0.50;99.90;;;;;;6274230;22;20086;-80
2023/03/03 07:42:27;;;;;;;44.10;12.38;;;0.60;99.90;;;;;;6220718;22;19911;-81
2023/03/03 07:44:57;;;;;;;28.60;11.50;;;0.60;99.90;;;;;;6220564;22;20062;-81
2023/03/03 07:47:23;;;;;;;28.77;11.80;;;0.70;99.90;;;;;;6220110;22;20011;-80
2023/03/03 07:49:51;;;;;;;24.38;10.90;;;0.80;99.90;;;;;;6245759;22;20030;-80
2023/03/03 07:52:27;;;;;;;23.02;9.80;;;1.00;99.90;;;;;;6245466;22;20015;-80
2023/03/03 07:54:56;;;;;;;19.60;10.25;;;1.00;99.90;;;;;;6245799;22;20092;-80
2023/03/03 07:57:24;;;;;;;30.52;12.27;;;1.10;99.90;;;;;;6220578;22;20462;-80
2023/03/03 08:00:15;;;;;;;20.52;11.13;;;1.20;99.90;;;;;;6246031;22;20066;-81
2023/03/03 08:03:01;;;;;;;22.00;10.35;;;1.30;99.90;;;;;;6221744;22;20327;-80
2023/03/03 08:05:34;;;;;;;17.17;10.48;;;1.40;99.90;;;;;;6222549;22;20008;-80
2023/03/03 08:08:09;;;;;;;36.50;11.88;;;1.60;99.90;;;;;;6275329;22;20008;-78
2023/03/03 08:10:44;;;;;;;42.35;13.45;;;1.70;99.90;;;;;;6248368;22;20011;-80
2023/03/03 08:13:17;;;;;;;46.42;12.63;;;1.90;99.90;;;;;;6273327;22;20012;-80
2023/03/03 08:15:45;;;;;;;15.32;11.23;;;2.10;99.90;;;;;;6247195;22;20406;-79
2023/03/03 08:18:24;;;;;;;12.70;10.52;;;2.50;99.90;;;;;;6247717;22;20382;-80
2023/03/03 08:21:01;;;;;;;22.20;11.52;;;2.70;99.90;;;;;;6247686;22;20023;-82
2023/03/03 08:23:27;;;;;;;11.88;9.65;;;3.00;99.90;;;;;;6222351;22;20007;-81
2023/03/03 08:25:53;;;;;;;21.27;10.57;;;3.10;99.90;;;;;;6248310;22;20022;-83
2023/03/03 08:28:19;;;;;;;13.73;8.25;;;3.20;99.90;;;;;;6221813;22;20027;-80
2023/03/03 08:30:45;;;;;;;14.60;8.15;;;3.20;99.90;;;;;;6244130;22;20378;-82
2023/03/03 08:33:12;;;;;;;8.38;7.38;;;3.10;99.90;;;;;;6238344;22;20026;-82
2023/03/03 08:35:38;;;;;;;10.55;7.45;;;3.00;99.90;;;;;;6273164;22;20007;-82
2023/03/03 08:38:04;;;;;;;9.50;7.53;;;3.10;99.90;;;;;;6245772;22;20506;-82
2023/03/03 08:40:30;;;;;;;8.55;7.63;;;3.10;99.90;;;;;;6246064;22;20399;-81
2023/03/03 08:42:57;;;;;;;8.98;7.05;;;3.10;99.90;;;;;;6220676;22;20008;-81
2023/03/03 08:45:23;;;;;;;9.65;8.18;;;3.10;99.90;;;;;;6221510;22;20111;-81
2023/03/03 08:47:49;;;;;;;10.88;9.05;;;3.10;99.90;;;;;;6247523;22;20472;-81
2023/03/03 08:50:16;;;;;;;9.57;7.72;;;3.10;99.90;;;;;;6221652;22;20419;-79
2023/03/03 08:52:41;;;;;;;10.18;8.38;;;3.10;99.90;;;;;;6247290;22;20450;-80
2023/03/03 08:55:07;;;;;;;10.32;8.15;;;3.10;99.90;;;;;;6248119;22;20012;-80
2023/03/03 08:57:33;;;;;;;12.32;9.85;;;3.10;99.90;;;;;;6247728;22;20403;-80
2023/03/03 08:59:58;;;;;;;10.68;9.57;;;3.10;99.90;;;;;;6246701;22;20099;-80
2023/03/03 09:02:24;;;;;;;13.50;10.00;;;3.10;99.90;;;;;;6247886;22;20338;-81
2023/03/03 09:04:50;;;;;;;12.50;10.10;;;3.10;99.90;;;;;;6222426;22;20022;-80
2023/03/03 09:07:15;;;;;;;11.60;8.50;;;3.20;99.90;;;;;;6247384;22;20095;-80
2023/03/03 09:09:41;;;;;;;11.02;8.98;;;3.20;99.90;;;;;;6222539;22;20020;-80
2023/03/03 09:12:15;;;;;;;10.15;8.90;;;3.20;99.90;;;;;;6274373;22;20099;-80
2023/03/03 09:14:41;;;;;;;11.02;9.82;;;3.30;99.90;;;;;;6274802;22;20012;-80
2023/03/03 09:17:26;;;;;;;12.65;9.50;;;3.30;99.90;;;;;;6247344;22;20012;-80
2023/03/03 09:19:58;;;;;;;12.10;9.55;;;3.40;99.90;;;;;;6274479;22;20007;-83
2023/03/03 09:22:25;;;;;;;11.45;9.93;;;3.40;99.90;;;;;;6247264;22;20025;-80
2023/03/03 09:24:54;;;;;;;16.83;10.90;;;3.40;99.90;;;;;;6274855;22;20015;-80
2023/03/03 09:27:29;;;;;;;13.45;10.10;;;3.40;99.90;;;;;;6247132;22;20011;-81
2023/03/03 09:30:01;;;;;;;14.20;9.70;;;3.40;99.90;;;;;;6221114;22;20019;-81
2023/03/03 09:32:34;;;;;;;13.02;10.25;;;3.50;99.90;;;;;;6247838;22;20016;-81
2023/03/03 09:35:21;;;;;;;15.30;11.02;;;3.50;99.90;;;;;;6274639;22;20012;-81
2023/03/03 09:37:50;;;;;;;14.95;10.50;;;3.50;99.90;;;;;;6247909;22;20015;-80
2023/03/03 09:40:47;;;;;;;18.08;11.25;;;3.60;99.90;;;;;;6274834;22;20019;-82
2023/03/03 09:43:22;;;;;;;15.13;11.48;;;3.60;99.90;;;;;;6274421;22;20046;-80
2023/03/03 09:45:57;;;;;;;13.48;11.38;;;3.70;99.90;;;;;;6247887;22;20051;-80
2023/03/03 09:48:26;;;;;;;13.65;10.70;;;3.90;99.90;;;;;;6274858;22;20019;-81
2023/03/03 09:50:58;;;;;;;13.70;11.27;;;4.00;99.90;;;;;;6274466;22;20030;-81
2023/03/03 09:54:02;;;;;;;15.43;11.70;;;4.10;99.90;;;;;;6247178;22;20092;-81
2023/03/03 09:56:41;;;;;;;14.30;10.02;;;4.30;99.90;;;;;;6126304;23;20056;-81
2023/03/03 09:59:13;;;;;;;12.63;10.93;;;4.40;99.90;;;;;;6100615;23;20029;-82
2023/03/03 10:02:03;;;;;;;14.32;11.15;;;4.50;99.90;;;;;;6125828;23;20476;-81
2023/03/03 10:04:51;;;;;;;13.85;10.00;;;4.70;99.90;;;;;;6101234;23;20140;-81
2023/03/03 10:07:44;;;;;;;10.75;9.65;;;4.90;99.90;;;;;;6150644;23;20112;-82
2023/03/03 10:10:52;;;;;;;12.00;9.95;;;5.10;99.90;;;;;;6150413;23;20017;-82
2023/03/03 10:13:52;;;;;;;10.98;9.43;;;5.30;99.90;;;;;;6090169;23;20014;-81
2023/03/03 10:16:37;;;;;;;11.35;9.00;;;5.50;99.90;;;;;;6149944;23;20017;-82
2023/03/03 10:19:27;;;;;;;13.55;9.55;;;5.60;99.90;;;;;;6149713;23;20041;-81
2023/03/03 10:22:28;;;;;;;10.45;9.30;;;5.80;99.90;;;;;;6149641;23;20072;-82
2023/03/03 10:25:03;;;;;;;11.30;8.18;;;5.90;99.90;;;;;;6101252;23;20112;-82
2023/03/03 10:27:47;;;;;;;9.82;8.15;;;6.20;99.90;;;;;;6125049;23;20013;-82
2023/03/03 10:30:22;;;;;;;11.35;8.23;;;6.10;99.90;;;;;;6193428;22;20023;-82
2023/03/03 10:33:07;;;;;;;9.82;7.85;;;6.30;99.90;;;;;;6220877;22;20397;-81
2023/03/03 10:35:57;;;;;;;12.32;7.22;;;6.40;99.90;;;;;;6274078;22;20008;-80
2023/03/03 10:38:28;;;;;;;10.40;6.75;;;6.50;99.90;;;;;;6274079;22;20327;-81
2023/03/03 10:41:12;;;;;;;9.68;6.25;;;6.70;99.90;;;;;;6273539;22;20011;-82
2023/03/03 10:43:41;;;;;;;;;;;6.90;99.90;;;;;;6247051;22;20069;-81
2023/03/03 10:46:50;;;;;;;11.70;5.80;;;7.00;99.90;;;;;;6245944;22;19911;-81
2023/03/03 10:49:38;;;;;;;10.95;5.45;;;7.20;99.90;;;;;;6096059;23;20022;-81
2023/03/03 10:52:48;;;;;;;10.88;5.18;;;7.40;99.90;;;;;;6095606;23;20397;-81
2023/03/03 10:55:38;;;;;;;11.07;4.78;;;7.40;99.90;;;;;;6095712;23;20283;-81
2023/03/03 10:58:29;;;;;;;10.82;5.00;;;7.50;99.90;;;;;;6095560;23;20016;-82
2023/03/03 11:01:24;;;;;;;5.60;4.10;;;7.60;99.90;;;;;;6095607;23;20137;-79
2023/03/03 11:03:59;;;;;;;6.35;4.03;;;7.70;99.90;;;;;;6071685;23;20041;-80
2023/03/03 11:06:41;;;;;;;8.52;3.65;;;7.70;99.90;;;;;;6096133;23;20021;-80
2023/03/03 11:09:26;;;;;;;6.38;3.90;;;7.60;99.90;;;;;;6072196;23;20076;-81
2023/03/03 11:12:18;;;;;;;7.47;4.05;;;7.70;99.90;;;;;;6094924;23;20433;-81
2023/03/03 11:14:51;;;;;;;6.47;3.60;;;7.80;99.90;;;;;;6095343;23;20069;-83
2023/03/03 11:17:42;;;;;;;6.80;3.97;;;7.90;99.90;;;;;;6096535;23;20437;-83
2023/03/03 11:20:32;;;;;;;8.45;4.13;;;7.90;99.90;;;;;;6121111;23;20014;-82
2023/03/03 11:23:18;;;;;;;8.45;3.72;;;7.90;99.90;;;;;;6160721;22;20403;-82
2023/03/03 11:25:51;;;;;;;7.43;3.50;;;7.90;99.90;;;;;;6219521;22;20011;-82
2023/03/03 11:28:26;;;;;;;6.63;3.10;;;8.10;99.90;;;;;;6273206;22;20045;-82
2023/03/03 11:30:57;;;;;;;6.30;3.40;;;8.10;99.90;;;;;;6273095;22;20047;-81
2023/03/03 11:33:33;;;;;;;6.25;3.05;;;8.20;99.90;;;;;;6246101;22;20102;-82
2023/03/03 11:36:10;;;;;;;7.47;3.20;;;8.30;99.90;;;;;;6246000;22;20122;-82
2023/03/03 11:39:09;;;;;;;7.80;3.30;;;8.30;99.90;;;;;;6246806;22;20090;-82
2023/03/03 11:41:57;;;;;;;5.57;3.20;;;8.30;99.90;;;;;;6246332;22;20008;-82
2023/03/03 11:44:22;;;;;;;5.97;2.88;;;8.40;99.90;;;;;;6220977;22;20090;-80
2023/03/03 11:47:00;;;;;;;5.72;2.80;;;8.50;99.90;;;;;;6246303;22;20062;-82
2023/03/03 11:49:37;;;;;;;6.05;2.42;;;8.60;99.90;;;;;;6273816;22;20018;-82
2023/03/03 11:52:31;;;;;;;7.95;2.60;;;8.50;99.90;;;;;;6246213;22;20008;-82
2023/03/03 11:55:12;;;;;;;;;;;8.60;99.90;;;;;;6246253;22;20439;-80
2023/03/03 11:57:42;;;;;;;4.85;1.95;;;8.60;99.90;;;;;;6246546;22;19911;-81
2023/03/03 12:00:37;;;;;;;4.88;1.95;;;8.50;99.90;;;;;;6274160;22;20039;-81
2023/03/03 12:03:23;;;;;;;4.65;1.95;;;8.40;99.90;;;;;;6272157;22;20016;-81
2023/03/03 12:05:54;;;;;;;5.63;2.13;;;8.40;99.90;;;;;;6246437;22;20505;-80
2023/03/03 12:08:44;;;;;;;5.72;2.00;;;8.40;99.90;;;;;;6245706;22;20391;-80
2023/03/03 12:11:13;;;;;;;6.85;2.08;;;8.40;99.90;;;;;;6248096;22;20027;-80
2023/03/03 12:14:01;;;;;;;5.07;1.60;;;8.50;99.90;;;;;;6246521;22;20015;-81
2023/03/03 12:16:58;;;;;;;9.27;1.80;;;8.40;99.90;;;;;;6274103;22;20039;-81
2023/03/03 12:19:37;;;;;;;7.80;1.73;;;8.50;99.90;;;;;;6246687;22;20364;-81
2023/03/03 12:22:08;;;;;;;3.90;1.35;;;8.50;99.90;;;;;;6246304;22;20019;-81
2023/03/03 12:25:12;;;;;;;6.30;1.65;;;8.60;99.90;;;;;;6245861;22;20023;-82
2023/03/03 12:27:59;;;;;;;5.68;1.40;;;8.50;99.90;;;;;;6252805;22;20087;-82
2023/03/03 12:30:50;;;;;;;5.35;1.48;;;8.60;99.90;;;;;;6273447;22;20417;-81
2023/03/03 12:33:57;;;;;;;5.10;1.60;;;8.40;99.90;;;;;;6272429;22;20020;-81
2023/03/03 12:36:58;;;;;;;5.05;1.40;;;8.40;99.90;;;;;;6117723;23;20010;-82
2023/03/03 12:39:41;;;;;;;5.60;1.58;;;8.50;99.90;;;;;;6093293;23;20186;-80
2023/03/03 12:42:12;;;;;;;4.15;1.40;;;8.60;99.90;;;;;;6117586;23;20018;-80
2023/03/03 12:44:46;;;;;;;4.65;1.50;;;8.80;99.90;;;;;;6093260;23;20453;-80
2023/03/03 12:47:39;;;;;;;7.38;1.65;;;8.90;99.90;;;;;;6117742;23;20067;-80
2023/03/03 12:50:16;;;;;;;4.35;1.35;;;8.90;99.90;;;;;;6088855;23;20025;-80
2023/03/03 12:53:09;;;;;;;7.70;1.60;;;9.00;99.90;;;;;;6097361;23;20469;-80
2023/03/03 12:55:46;;;;;;;7.95;2.28;;;9.00;99.90;;;;;;6122723;23;20114;-81
2023/03/03 12:58:11;;;;;;;8.90;1.67;;;9.00;99.90;;;;;;6122678;23;20019;-80
2023/03/03 13:01:07;;;;;;;7.00;1.98;;;9.00;99.90;;;;;;6099728;23;20017;-81
2023/03/03 13:03:55;;;;;;;7.82;1.70;;;9.10;99.90;;;;;;6035462;23;20019;-80
2023/03/03 13:06:30;;;;;;;7.38;1.88;;;8.90;99.90;;;;;;6011132;23;20019;-80